createdAt,value
2022-11-19T00:00:10.661Z,12.07
2022-11-19T00:02:38.897Z,12.73
2022-11-19T00:05:07.725Z,14.03
2022-11-19T00:07:36.200Z,12.93
2022-11-19T00:10:07.289Z,12.00
2022-11-19T00:12:53.002Z,11.53
2022-11-19T00:15:21.616Z,12.53
2022-11-19T00:17:50.416Z,13.80
2022-11-19T00:20:18.984Z,11.80
2022-11-19T00:22:51.830Z,11.37
2022-11-19T00:25:22.406Z,11.53
2022-11-19T00:27:51.036Z,12.90
2022-11-19T00:30:46.203Z,11.97
2022-11-19T00:33:08.758Z,12.07
2022-11-19T00:35:37.055Z,11.67
2022-11-19T00:38:05.359Z,12.10
2022-11-19T00:40:35.021Z,12.60
2022-11-19T00:43:20.703Z,10.47
2022-11-19T00:45:50.308Z,12.50
2022-11-19T00:48:21.657Z,11.43
2022-11-19T00:50:49.985Z,11.70
2022-11-19T00:53:18.514Z,11.67
2022-11-19T00:55:48.238Z,11.83
2022-11-19T00:58:16.531Z,12.70
2022-11-19T01:00:45.030Z,11.30
2022-11-19T01:03:13.619Z,12.80
2022-11-19T01:05:42.011Z,12.33
2022-11-19T01:08:10.802Z,12.17
2022-11-19T01:10:39.244Z,12.20
2022-11-19T01:13:26.260Z,12.07
2022-11-19T01:15:54.933Z,12.93
2022-11-19T01:18:23.531Z,12.40
2022-11-19T01:20:51.810Z,12.80
2022-11-19T01:23:20.542Z,12.90
2022-11-19T01:25:48.896Z,12.23
2022-11-19T01:28:18.799Z,14.50
2022-11-19T01:30:47.250Z,13.00
2022-11-19T01:33:16.046Z,12.97
2022-11-19T01:35:44.462Z,12.90
2022-11-19T01:38:12.907Z,15.10
2022-11-19T01:40:45.522Z,14.73
2022-11-19T01:43:14.895Z,12.63
2022-11-19T01:45:48.220Z,11.83
2022-11-19T01:48:22.387Z,11.00
2022-11-19T01:50:57.763Z,12.73
2022-11-19T01:53:31.195Z,13.03
2022-11-19T01:56:04.145Z,11.90
2022-11-19T01:58:39.288Z,13.13
2022-11-19T02:01:11.213Z,12.63
2022-11-19T02:03:40.786Z,11.93
2022-11-19T02:06:09.726Z,12.50
2022-11-19T02:08:42.922Z,13.17
2022-11-19T02:11:58.434Z,12.60
2022-11-19T02:15:09.152Z,13.30
2022-11-19T02:17:58.816Z,12.93
2022-11-19T02:20:53.200Z,12.47
2022-11-19T02:24:33.182Z,13.53
2022-11-19T02:27:49.374Z,13.10
2022-11-19T02:30:20.136Z,13.97
2022-11-19T02:33:00.696Z,13.70
2022-11-19T02:35:46.127Z,13.10
2022-11-19T02:38:25.074Z,12.47
2022-11-19T02:41:00.342Z,14.00
2022-11-19T02:43:37.699Z,13.33
2022-11-19T02:46:13.103Z,13.83
2022-11-19T02:48:47.551Z,12.50
2022-11-19T02:51:17.527Z,12.70
2022-11-19T02:53:48.622Z,14.40
2022-11-19T02:56:49.792Z,11.60
2022-11-19T02:59:39.422Z,11.80
2022-11-19T03:02:29.239Z,12.07
2022-11-19T03:04:58.059Z,12.87
2022-11-19T03:07:26.589Z,12.97
2022-11-19T03:10:00.651Z,12.23
2022-11-19T03:12:40.582Z,13.27
2022-11-19T03:15:43.855Z,12.17
2022-11-19T03:18:19.436Z,12.87
2022-11-19T03:20:54.303Z,12.43
2022-11-19T03:23:28.147Z,12.00
2022-11-19T03:26:02.072Z,13.27
2022-11-19T03:28:37.100Z,12.17
2022-11-19T03:31:07.707Z,13.90
2022-11-19T03:33:42.711Z,13.03
2022-11-19T03:36:15.630Z,13.90
2022-11-19T03:38:48.032Z,14.03
2022-11-19T03:41:20.971Z,12.80
2022-11-19T03:43:56.478Z,12.97
2022-11-19T03:46:26.743Z,12.37
2022-11-19T03:49:00.484Z,12.90
2022-11-19T03:51:38.058Z,14.40
2022-11-19T03:54:07.569Z,14.10
2022-11-19T03:56:40.367Z,14.07
2022-11-19T03:59:12.828Z,12.70
2022-11-19T04:01:42.061Z,14.57
2022-11-19T04:04:28.980Z,14.53
2022-11-19T04:06:57.376Z,15.03
2022-11-19T04:09:25.674Z,14.43
2022-11-19T04:14:21.443Z,14.73
2022-11-19T04:16:50.168Z,13.00
2022-11-19T04:19:20.106Z,15.00
2022-11-19T04:21:48.940Z,13.90
2022-11-19T04:24:17.840Z,14.63
2022-11-19T04:26:46.085Z,12.30
2022-11-19T04:29:14.594Z,13.50
2022-11-19T04:31:43.206Z,14.10
2022-11-19T04:34:11.458Z,16.40
2022-11-19T04:36:42.288Z,13.73
2022-11-19T04:39:12.672Z,14.40
2022-11-19T04:41:41.714Z,14.90
2022-11-19T04:44:10.052Z,14.40
2022-11-19T04:46:38.420Z,15.40
2022-11-19T04:49:06.964Z,15.00
2022-11-19T04:51:35.242Z,15.70
2022-11-19T04:54:05.315Z,16.57
2022-11-19T04:56:33.603Z,16.17
2022-11-19T04:59:02.175Z,14.87
2022-11-19T05:01:30.674Z,16.07
2022-11-19T05:03:58.996Z,15.10
2022-11-19T05:06:27.349Z,17.47
2022-11-19T05:08:55.629Z,17.40
2022-11-19T05:11:25.338Z,15.90
2022-11-19T05:13:53.618Z,16.50
2022-11-19T05:16:21.885Z,18.03
2022-11-19T05:18:50.139Z,18.13
2022-11-19T05:21:18.444Z,17.53
2022-11-19T05:23:46.648Z,17.10
2022-11-19T05:26:14.915Z,18.10
2022-11-19T05:28:44.580Z,16.73
2022-11-19T05:31:12.970Z,14.77
2022-11-19T05:33:41.620Z,16.97
2022-11-19T05:36:10.564Z,18.10
2022-11-19T05:38:39.072Z,16.10
2022-11-19T05:41:07.787Z,17.03
2022-11-19T05:43:36.150Z,17.03
2022-11-19T05:46:06.006Z,16.47
2022-11-19T05:48:34.598Z,18.43
2022-11-19T05:51:03.110Z,16.30
2022-11-19T05:53:31.413Z,16.27
2022-11-19T05:55:59.628Z,17.57
2022-11-19T05:58:27.874Z,18.07
2022-11-19T06:00:56.644Z,18.20
2022-11-19T06:03:26.326Z,18.60
2022-11-19T06:05:54.660Z,20.53
2022-11-19T06:08:22.898Z,17.20
2022-11-19T06:10:51.373Z,18.03
2022-11-19T06:13:20.168Z,19.57
2022-11-19T06:15:48.722Z,18.27
2022-11-19T06:18:17.006Z,17.67
2022-11-19T06:20:46.807Z,16.80
2022-11-19T06:23:15.043Z,17.73
2022-11-19T06:25:43.301Z,17.90
2022-11-19T06:28:11.623Z,19.87
2022-11-19T06:30:40.125Z,19.70
2022-11-19T06:33:08.832Z,20.67
2022-11-19T06:35:37.102Z,18.20
2022-11-19T06:38:06.814Z,19.20
2022-11-19T06:40:35.096Z,18.80
2022-11-19T06:43:03.387Z,19.87
2022-11-19T06:45:31.812Z,19.10
2022-11-19T06:48:00.043Z,18.03
2022-11-19T06:50:28.317Z,17.00
2022-11-19T06:52:56.599Z,19.27
2022-11-19T06:55:27.499Z,17.83
2022-11-19T06:57:56.227Z,16.80
2022-11-19T07:00:24.924Z,19.97
2022-11-19T07:02:53.172Z,17.77
2022-11-19T07:05:21.591Z,19.40
2022-11-19T07:07:49.784Z,18.40
2022-11-19T07:10:18.431Z,18.03
2022-11-19T07:12:48.062Z,18.53
2022-11-19T07:15:17.034Z,19.20
2022-11-19T07:17:45.314Z,18.40
2022-11-19T07:20:14.525Z,18.47
2022-11-19T07:22:43.405Z,18.93
2022-11-19T07:25:13.488Z,19.57
2022-11-19T07:27:42.641Z,19.27
2022-11-19T07:30:13.788Z,17.20
2022-11-19T07:32:42.191Z,16.90
2022-11-19T07:35:11.920Z,19.73
2022-11-19T07:37:40.913Z,19.10
2022-11-19T07:40:11.517Z,20.50
2022-11-19T07:42:50.936Z,17.50
2022-11-19T07:45:23.342Z,20.17
2022-11-19T07:47:51.589Z,20.10
2022-11-19T07:50:20.683Z,18.27
2022-11-19T07:52:49.022Z,17.80
2022-11-19T07:55:17.612Z,20.00
2022-11-19T07:57:46.055Z,19.47
2022-11-19T08:00:16.155Z,20.20
2022-11-19T08:02:46.008Z,17.80
2022-11-19T08:05:14.666Z,18.97
2022-11-19T08:07:43.034Z,17.93
2022-11-19T08:10:12.722Z,20.50
2022-11-19T08:12:41.045Z,20.30
2022-11-19T08:15:11.067Z,18.63
2022-11-19T08:17:56.637Z,19.40
2022-11-19T08:20:26.381Z,19.60
2022-11-19T08:22:54.803Z,20.50
2022-11-19T08:25:23.056Z,18.13
2022-11-19T08:27:51.259Z,19.80
2022-11-19T08:30:19.836Z,19.60
2022-11-19T08:32:48.233Z,17.60
2022-11-19T08:35:16.664Z,20.97
2022-11-19T08:37:47.947Z,19.60
2022-11-19T08:40:17.139Z,20.50
2022-11-19T08:42:59.917Z,19.10
2022-11-19T08:45:31.336Z,19.13
2022-11-19T08:48:01.793Z,20.30
2022-11-19T08:50:31.820Z,18.90
2022-11-19T08:53:03.566Z,18.50
2022-11-19T08:55:33.767Z,18.57
2022-11-19T08:58:04.674Z,20.77
2022-11-19T09:00:35.805Z,17.87
2022-11-19T09:03:04.296Z,20.17
2022-11-19T09:05:35.419Z,19.10
2022-11-19T09:08:05.126Z,17.90
2022-11-19T09:10:33.745Z,20.77
2022-11-19T09:13:03.429Z,18.90
2022-11-19T09:15:32.025Z,17.87
2022-11-19T09:18:00.436Z,19.73
2022-11-19T09:20:28.682Z,18.87
2022-11-19T09:22:57.374Z,20.40
2022-11-19T09:25:27.205Z,20.60
2022-11-19T09:27:56.079Z,20.90
2022-11-19T09:30:24.515Z,18.93
2022-11-19T09:32:52.925Z,19.33
2022-11-19T09:35:21.274Z,20.70
2022-11-19T09:37:49.613Z,18.70
2022-11-19T09:40:21.725Z,21.03
2022-11-19T09:43:08.483Z,19.33
2022-11-19T09:45:54.860Z,19.10
2022-11-19T09:48:34.926Z,20.70
2022-11-19T09:51:11.245Z,19.90
2022-11-19T09:53:46.550Z,21.40
2022-11-19T09:56:27.140Z,21.20
2022-11-19T09:58:58.617Z,19.00
2022-11-19T10:01:30.447Z,19.07
2022-11-19T10:04:00.417Z,18.47
2022-11-19T10:06:33.248Z,18.80
2022-11-19T10:09:25.259Z,18.70
2022-11-19T10:12:12.386Z,18.80
2022-11-19T10:15:08.104Z,18.20
2022-11-19T10:17:53.008Z,20.87
2022-11-19T10:20:49.059Z,16.77
2022-11-19T10:23:20.046Z,16.93
2022-11-19T10:25:50.676Z,17.67
2022-11-19T10:28:23.254Z,19.70
2022-11-19T10:30:56.439Z,20.33
2022-11-19T10:33:31.954Z,16.07
2022-11-19T10:36:05.556Z,18.57
2022-11-19T10:38:38.890Z,17.50
2022-11-19T10:41:14.984Z,16.20
2022-11-19T10:43:48.733Z,16.20
2022-11-19T10:46:23.906Z,19.03
2022-11-19T10:48:56.019Z,16.73
2022-11-19T10:51:29.726Z,15.90
2022-11-19T10:53:58.981Z,16.50
2022-11-19T10:56:39.464Z,15.90
2022-11-19T10:59:13.936Z,15.70
2022-11-19T11:01:46.885Z,16.90
2022-11-19T11:04:20.080Z,15.97
2022-11-19T11:06:55.926Z,15.60
2022-11-19T11:09:35.509Z,14.53
2022-11-19T11:12:31.501Z,14.53
2022-11-19T11:15:09.035Z,15.27
2022-11-19T11:17:39.136Z,14.97
2022-11-19T11:20:21.443Z,14.00
2022-11-19T11:23:02.896Z,13.27
2022-11-19T11:25:31.470Z,14.87
2022-11-19T11:28:08.230Z,15.00
2022-11-19T11:30:36.622Z,14.30
2022-11-19T11:36:01.690Z,14.50
2022-11-19T11:38:31.266Z,14.37
2022-11-19T11:41:43.995Z,14.50
2022-11-19T11:44:04.403Z,14.40
2022-11-19T11:46:44.301Z,14.20
2022-11-19T11:49:31.808Z,14.17
2022-11-19T11:52:20.952Z,13.50
2022-11-19T11:55:01.066Z,14.63
2022-11-19T11:57:31.699Z,14.53
2022-11-19T12:00:00.964Z,14.10
2022-11-19T12:02:33.005Z,14.30
2022-11-19T12:05:05.133Z,14.97
2022-11-19T12:08:04.793Z,14.57
2022-11-19T12:10:45.125Z,13.97
2022-11-19T12:13:57.743Z,14.83
2022-11-19T12:16:42.330Z,13.43
2022-11-19T12:19:53.053Z,12.77
2022-11-19T12:22:35.973Z,12.67
2022-11-19T12:25:31.239Z,13.10
2022-11-19T12:28:25.919Z,13.40
2022-11-19T12:31:12.161Z,12.47
2022-11-19T12:34:05.775Z,14.10
2022-11-19T12:36:48.494Z,12.30
2022-11-19T12:39:37.416Z,11.47
2022-11-19T12:42:31.301Z,12.90
2022-11-19T12:45:12.179Z,11.37
2022-11-19T12:48:04.049Z,10.77
2022-11-19T12:50:43.603Z,11.83
2022-11-19T12:53:27.594Z,12.70
2022-11-19T12:56:08.478Z,13.30
2022-11-19T12:58:47.978Z,11.83
2022-11-19T13:01:22.210Z,12.20
2022-11-19T13:04:03.852Z,10.33
2022-11-19T13:06:40.441Z,13.57
2022-11-19T13:09:17.151Z,13.30
2022-11-19T13:11:55.459Z,11.80
2022-11-19T13:14:33.379Z,11.00
2022-11-19T13:17:03.114Z,11.00
2022-11-19T13:19:35.074Z,10.90
2022-11-19T13:22:08.464Z,10.93
2022-11-19T13:24:42.606Z,12.10
2022-11-19T13:27:20.196Z,10.80
2022-11-19T13:30:00.117Z,10.90
2022-11-19T13:32:38.526Z,11.23
2022-11-19T13:35:19.674Z,9.17
2022-11-19T13:38:01.159Z,10.70
2022-11-19T13:40:36.818Z,10.07
2022-11-19T13:43:34.700Z,10.60
2022-11-19T13:46:19.404Z,11.57
2022-11-19T13:48:57.657Z,10.50
2022-11-19T13:51:33.285Z,10.87
2022-11-19T13:54:04.342Z,10.40
2022-11-19T13:56:43.892Z,10.57
2022-11-19T13:59:30.250Z,10.60
2022-11-19T14:02:43.920Z,10.33
2022-11-19T14:05:59.757Z,10.87
2022-11-19T14:08:45.241Z,10.97
2022-11-19T14:11:43.158Z,9.20
2022-11-19T14:14:49.856Z,9.70
2022-11-19T14:17:48.386Z,11.17
2022-11-19T14:23:30.372Z,10.40
2022-11-19T14:26:16.528Z,10.30
2022-11-19T14:28:48.427Z,10.50
2022-11-19T14:31:17.634Z,10.50
2022-11-19T14:34:01.677Z,9.77
2022-11-19T14:36:48.854Z,9.07
2022-11-19T14:39:25.318Z,9.33
2022-11-19T14:42:15.842Z,9.30
2022-11-19T14:44:44.594Z,9.97
2022-11-19T14:47:38.436Z,8.90
2022-11-19T14:50:23.455Z,9.77
2022-11-19T14:52:55.128Z,8.87
2022-11-19T14:55:27.999Z,9.90
2022-11-19T14:58:02.444Z,9.00
2022-11-19T15:00:36.418Z,9.67
2022-11-19T15:03:08.590Z,9.73
2022-11-19T15:05:42.073Z,9.63
2022-11-19T15:08:47.004Z,9.77
2022-11-19T15:11:17.727Z,9.40
2022-11-19T15:13:47.480Z,10.33
2022-11-19T15:16:20.161Z,10.27
2022-11-19T15:19:24.281Z,9.40
2022-11-19T15:22:44.303Z,9.20
2022-11-19T15:25:30.635Z,8.97
2022-11-19T15:28:29.029Z,8.60
2022-11-19T15:31:23.826Z,8.43
2022-11-19T15:35:03.819Z,8.43
2022-11-19T15:37:47.035Z,9.23
2022-11-19T15:40:20.782Z,8.70
2022-11-19T15:42:58.123Z,8.60
2022-11-19T15:45:32.533Z,8.67
2022-11-19T15:48:13.869Z,9.53
2022-11-19T15:50:44.979Z,8.67
2022-11-19T15:53:20.443Z,7.97
2022-11-19T15:55:54.131Z,9.43
2022-11-19T15:58:28.507Z,8.10
2022-11-19T16:00:58.320Z,9.57
2022-11-19T16:03:26.702Z,8.50
2022-11-19T16:06:05.654Z,8.43
2022-11-19T16:08:34.668Z,8.90
2022-11-19T16:11:21.222Z,8.60
2022-11-19T16:14:12.198Z,9.23
2022-11-19T16:16:59.403Z,8.30
2022-11-19T16:19:27.667Z,8.80
2022-11-19T16:22:00.854Z,9.77
2022-11-19T16:24:48.437Z,9.10
2022-11-19T16:27:23.110Z,12.40
2022-11-19T16:29:52.708Z,9.07
2022-11-19T16:32:25.645Z,8.90
2022-11-19T16:34:53.985Z,9.60
2022-11-19T16:37:23.489Z,8.30
2022-11-19T16:39:54.148Z,9.27
2022-11-19T16:42:28.348Z,8.80
2022-11-19T16:45:06.197Z,9.23
2022-11-19T16:47:39.863Z,9.57
2022-11-19T16:50:26.964Z,9.83
2022-11-19T16:52:56.381Z,8.83
2022-11-19T16:55:52.569Z,9.97
2022-11-19T16:58:26.285Z,9.43
2022-11-19T17:00:59.565Z,9.07
2022-11-19T17:03:37.019Z,8.77
2022-11-19T17:06:09.036Z,10.13
2022-11-19T17:08:39.456Z,10.07
2022-11-19T17:11:41.001Z,9.57
2022-11-19T17:14:21.501Z,9.60
2022-11-19T17:16:52.445Z,8.67
2022-11-19T17:19:34.388Z,10.50
2022-11-19T17:22:05.984Z,9.00
2022-11-19T17:24:41.882Z,9.70
2022-11-19T17:27:23.903Z,9.80
2022-11-19T17:30:02.883Z,10.03
2022-11-19T17:32:40.067Z,7.50
2022-11-19T17:35:35.167Z,10.13
2022-11-19T17:38:11.460Z,9.60
2022-11-19T17:40:42.092Z,8.67
2022-11-19T17:43:29.531Z,8.07
2022-11-19T17:45:57.903Z,6.90
2022-11-19T17:48:28.288Z,7.50
2022-11-19T17:50:58.585Z,9.23
2022-11-19T17:53:26.894Z,6.90
2022-11-19T17:55:58.116Z,7.60
2022-11-19T17:58:26.353Z,6.63
2022-11-19T18:00:54.760Z,8.33
2022-11-19T18:03:23.203Z,7.50
2022-11-19T18:05:51.826Z,7.70
2022-11-19T18:08:21.508Z,8.17
2022-11-19T18:10:50.615Z,7.70
2022-11-19T18:13:25.267Z,7.47
2022-11-19T18:15:53.717Z,7.80
2022-11-19T18:18:21.905Z,7.30
2022-11-19T18:20:51.216Z,6.93
2022-11-19T18:23:20.925Z,7.07
2022-11-19T18:25:49.235Z,7.07
2022-11-19T18:28:17.622Z,6.70
2022-11-19T18:30:45.866Z,7.40
2022-11-19T18:33:14.352Z,8.20
2022-11-19T18:35:42.670Z,6.80
2022-11-19T18:38:10.935Z,7.40
2022-11-19T18:40:42.222Z,7.83
2022-11-19T18:43:28.176Z,7.90
2022-11-19T18:45:56.460Z,7.90
2022-11-19T18:48:24.838Z,9.03
2022-11-19T18:50:53.766Z,7.33
2022-11-19T18:53:22.064Z,7.93
2022-11-19T18:55:51.923Z,9.30
2022-11-19T18:58:20.516Z,6.70
2022-11-19T19:00:49.074Z,7.10
2022-11-19T19:03:17.467Z,7.53
2022-11-19T19:05:45.694Z,6.87
2022-11-19T19:08:14.136Z,7.30
2022-11-19T19:10:43.040Z,7.00
2022-11-19T19:13:11.698Z,7.40
2022-11-19T19:15:40.010Z,7.10
2022-11-19T19:18:11.897Z,8.00
2022-11-19T19:20:40.223Z,7.90
2022-11-19T19:23:08.897Z,6.93
2022-11-19T19:25:37.399Z,7.87
2022-11-19T19:28:06.118Z,6.50
2022-11-19T19:30:36.247Z,7.40
2022-11-19T19:33:05.165Z,6.10
2022-11-19T19:35:33.452Z,7.37
2022-11-19T19:38:01.701Z,7.53
2022-11-19T19:40:30.091Z,7.53
2022-11-19T19:43:03.174Z,6.53
2022-11-19T19:45:31.547Z,6.87
2022-11-19T19:48:01.166Z,6.73
2022-11-19T19:50:29.642Z,7.27
2022-11-19T19:52:59.106Z,6.37
2022-11-19T19:55:27.770Z,6.43
2022-11-19T19:57:56.510Z,6.80
2022-11-19T20:00:24.872Z,6.47
2022-11-19T20:02:53.605Z,6.40
2022-11-19T20:05:23.192Z,6.50
2022-11-19T20:07:51.418Z,7.27
2022-11-19T20:10:19.880Z,6.27
2022-11-19T20:13:05.651Z,5.97
2022-11-19T20:15:35.192Z,6.40
2022-11-19T20:18:03.526Z,6.50
2022-11-19T20:20:34.116Z,6.63
2022-11-19T20:23:02.557Z,5.97
2022-11-19T20:25:30.870Z,6.40
2022-11-19T20:27:59.275Z,7.17
2022-11-19T20:30:27.584Z,6.53
2022-11-19T20:32:55.898Z,6.87
2022-11-19T20:35:24.685Z,6.53
2022-11-19T20:38:00.771Z,7.30
2022-11-19T20:40:31.832Z,7.10
2022-11-19T20:43:17.831Z,6.27
2022-11-19T20:45:46.179Z,7.30
2022-11-19T20:48:14.430Z,6.43
2022-11-19T20:50:42.960Z,8.30
2022-11-19T20:53:12.753Z,6.80
2022-11-19T20:56:03.870Z,7.57
2022-11-19T20:58:29.672Z,7.13
2022-11-19T21:01:03.667Z,6.13
2022-11-19T21:03:33.862Z,7.40
2022-11-19T21:06:06.573Z,7.00
2022-11-19T21:08:37.553Z,6.87
2022-11-19T21:11:12.561Z,6.63
2022-11-19T21:13:41.251Z,6.63
2022-11-19T21:16:13.797Z,7.33
2022-11-19T21:18:42.867Z,7.57
2022-11-19T21:21:12.884Z,6.70
2022-11-19T21:23:43.315Z,7.00
2022-11-19T21:26:16.355Z,6.97
2022-11-19T21:28:46.237Z,7.10
2022-11-19T21:31:15.477Z,8.50
2022-11-19T21:33:43.997Z,6.63
2022-11-19T21:36:12.502Z,8.32
2022-11-19T21:38:42.304Z,6.65
2022-11-19T21:41:10.609Z,7.70
2022-11-19T21:43:38.873Z,7.47
2022-11-19T21:46:08.924Z,6.65
2022-11-19T21:48:39.391Z,7.57
2022-11-19T21:51:09.263Z,8.20
2022-11-19T21:53:37.747Z,8.30
2022-11-19T21:56:08.718Z,7.53
2022-11-19T21:58:37.017Z,7.28
2022-11-19T22:01:06.951Z,7.70
2022-11-19T22:03:36.829Z,8.03
2022-11-19T22:06:08.693Z,7.93
2022-11-19T22:08:39.595Z,7.57
2022-11-19T22:11:25.216Z,7.40
2022-11-19T22:13:54.627Z,7.97
2022-11-19T22:16:23.292Z,6.55
2022-11-19T22:18:51.900Z,7.18
2022-11-19T22:21:20.320Z,7.72
2022-11-19T22:23:48.615Z,7.78
2022-11-19T22:26:18.374Z,8.60
2022-11-19T22:28:46.670Z,8.65
2022-11-19T22:31:15.761Z,8.43
2022-11-19T22:33:44.180Z,7.93
2022-11-19T22:36:13.073Z,9.00
2022-11-19T22:38:41.343Z,9.33
2022-11-19T22:41:12.220Z,8.70
2022-11-19T22:43:44.190Z,7.73
2022-11-19T22:46:14.237Z,9.13
2022-11-19T22:48:42.928Z,8.23
2022-11-19T22:51:14.838Z,9.53
2022-11-19T22:53:44.232Z,8.40
2022-11-19T22:56:15.140Z,7.40
2022-11-19T22:58:45.541Z,9.00
2022-11-19T23:01:18.635Z,7.90
2022-11-19T23:03:47.436Z,8.23
2022-11-19T23:06:16.189Z,7.83
2022-11-19T23:08:44.961Z,8.00
2022-11-19T23:11:15.389Z,7.83
2022-11-19T23:13:45.097Z,8.60
2022-11-19T23:16:16.710Z,9.52
2022-11-19T23:18:50.927Z,8.20
2022-11-19T23:21:22.196Z,8.45
2022-11-19T23:23:51.212Z,8.48
2022-11-19T23:26:21.996Z,8.88
2022-11-19T23:28:52.770Z,8.57
2022-11-19T23:31:23.851Z,8.70
2022-11-19T23:33:58.810Z,8.80
2022-11-19T23:36:30.411Z,8.63
2022-11-19T23:38:59.925Z,8.20
2022-11-19T23:41:29.361Z,7.28
2022-11-19T23:43:59.256Z,8.80
2022-11-19T23:46:30.087Z,7.80
2022-11-19T23:49:00.573Z,7.50
2022-11-19T23:51:32.498Z,7.93
2022-11-19T23:54:01.083Z,8.27
2022-11-19T23:56:32.267Z,8.25
2022-11-19T23:59:03.626Z,8.05
